• Join FlightAware (Why Join?)
  • Login
  • US Flag 
10:04PM EDT


 

Airport Tracker/Info


-or-


 

Live Flight TrackerFlight Track Log ✈ N507DM ✈ 11-Dec-2013 ✈ KCRG - KSGJ

Flight Track Log - Related Links

Times and Time Zones

All times are in EST time to prevent confusion due to time zone crossing. See the N507DM flight status page for this flight to view local times or setup timezone preferences in your user account.

Time Position Orientation Groundspeed Altitude Reporting Facility
EST Latitude Longitude Course Direction KTS MPH feet Rate Location/Type
11:56AM 30.3403 -81.5061 48° Northeast 79 91 800  Level Jacksonville Center
11:57AM 30.3339 -81.4797 106° East 86 99 1,600 720 Climbing Jacksonville Center
11:58AM 30.3294 -81.4583 104° East 79 91 2,300 660 Climbing Jacksonville Center
11:59AM 30.3106 -81.4489 157° South 82 94 3,000 360 Climbing Jacksonville Center
12:00PM 30.2853 -81.4372 158° South 99 114 3,100  Climbing Jacksonville Center
12:01PM 30.2603 -81.4231 154° Southeast 94 108 3,100 -60 Level Jacksonville Center
12:02PM 30.2350 -81.4164 167° South 92 106 3,000 -120 Descending Jacksonville Center
12:03PM 30.2097 -81.4047 158° South 92 106 2,900  Descending Jacksonville Center
12:04PM 30.1867 -81.3906 152° Southeast 94 108 3,000 60 Climbing Jacksonville Center
12:05PM 30.1594 -81.3814 164° South 93 107 3,100 -60 Climbing Jacksonville Center
12:06PM 30.1342 -81.3747 167° South 99 114 2,900 -60 Descending Jacksonville Center
12:07PM 30.1069 -81.3631 160° South 98 113 3,000  Climbing Jacksonville Center
12:08PM 30.0900 -81.3467 140° Southeast 98 113 2,900  Descending Jacksonville Center
12:09PM 30.0897 -81.3153 91° East 93 107 3,000  Climbing Jacksonville Center
12:10PM 30.0811 -81.2842 108° East 96 110 3,000 -60 Level Jacksonville Center
12:11PM 30.0622 -81.2797 168° South 106 122 2,900 -60 Descending Jacksonville Center
12:12PM 30.0372 -81.2947 207° Southwest 95 109 2,900  Level Jacksonville Center
12:13PM 30.0125 -81.3069 203° Southwest 91 105 2,900  Level Jacksonville Center
12:14PM 29.9875 -81.3147 195° South 95 109 2,900  Level Jacksonville Center
12:15PM 29.9625 -81.3319 211° Southwest 98 113 3,000  Climbing Jacksonville Center
12:16PM 29.9567 -81.3536 253° West 110 127 2,900  Descending Jacksonville Center
12:17PM 29.9778 -81.3819 311° West 108 124 3,000  Climbing Jacksonville Center
12:18PM 29.9947 -81.3936 329° Northwest 113 130 2,900 -60 Descending Jacksonville Center
12:19PM 29.9797 -81.3675 124° Southeast 93 107 2,900  Level Jacksonville Center
12:20PM 29.9647 -81.3414 124° Southeast 93 107 3,000 -120 Climbing Jacksonville Center
12:21PM 29.9478 -81.3225 136° Southeast 91 105 2,700 -420 Descending Jacksonville Center
12:22PM 29.9308 -81.3036 136° Southeast 86 99 2,200 -540 Descending Jacksonville Center
12:23PM 29.9139 -81.2822 132° Southeast 86 99 1,700 -300 Descending Jacksonville Center
12:24PM 29.8889 -81.2803 176° South 103 119 1,600 -60 Descending Jacksonville Center
12:25PM 29.8825 -81.2661 117° Southeast 106 122 1,600  Level Jacksonville Center
12:26PM 29.9075 -81.2728 347° North 98 113 1,600  Level Jacksonville Center